Time;durP1;ratioP1;P1;durP2;ratioP2;P2;SDS_P1;SDS_P2;PMS_P1;PMS_P2;Temp;Humidity;BMP_temperature;BMP_pressure;BME280_temperature;BME280_humidity;BME280_pressure;Samples;Min_cycle;Max_cycle;Signal;HPM_P1;HPM_P2
2024/01/15 00:01:53;;;;;;;18.50;14.53;;;;;;;1.83;100.00;146520.59;5091700;28;20187;-63
2024/01/15 00:04:21;;;;;;;19.03;15.47;;;;;;;1.89;100.00;146534.41;5093776;28;20696;-64
2024/01/15 00:06:49;;;;;;;22.37;15.90;;;;;;;1.91;100.00;146540.66;5095888;28;20240;-62
2024/01/15 00:09:16;;;;;;;33.53;22.50;;;;;;;2.03;100.00;146569.56;5095719;28;20215;-62
2024/01/15 00:11:43;;;;;;;35.77;23.70;;;;;;;2.02;100.00;146568.28;5095879;28;20603;-64
2024/01/15 00:14:10;;;;;;;53.70;26.77;;;;;;;2.12;100.00;146592.16;5095916;28;20638;-63
2024/01/15 00:16:37;;;;;;;41.13;24.03;;;;;;;2.17;100.00;146604.66;5095876;28;20184;-63
2024/01/15 00:19:04;;;;;;;51.20;27.53;;;;;;;2.27;100.00;146629.78;5095436;28;20192;-62
2024/01/15 00:21:32;;;;;;;40.43;23.90;;;;;;;2.32;100.00;146641.09;5095847;28;20184;-63
2024/01/15 00:23:59;;;;;;;34.30;21.77;;;;;;;2.32;100.00;146642.34;5095788;28;20256;-62
2024/01/15 00:26:27;;;;;;;34.87;21.90;;;;;;;2.31;100.00;146639.81;5095608;28;20210;-65
2024/01/15 00:28:54;;;;;;;36.83;21.87;;;;;;;2.14;100.00;146597.16;5095594;28;20208;-63
2024/01/15 00:31:21;;;;;;;39.70;24.20;;;;;;;2.27;100.00;146631.06;5095348;28;20192;-62
2024/01/15 00:33:48;;;;;;;43.33;26.20;;;;;;;2.10;100.00;146587.13;5095499;28;20612;-64
2024/01/15 00:36:16;;;;;;;37.27;23.03;;;;;;;1.88;100.00;146531.88;5095120;28;20188;-64
2024/01/15 00:38:47;;;;;;;33.57;21.73;;;;;;;1.73;100.00;146495.53;5095420;28;20184;-64
2024/01/15 00:41:14;;;;;;;30.87;20.50;;;;;;;1.76;100.00;146504.28;5094977;28;20184;-62
2024/01/15 00:43:41;;;;;;;32.60;20.47;;;;;;;1.72;100.00;146494.25;5095253;28;20188;-62
2024/01/15 00:46:08;;;;;;;34.47;21.53;;;;;;;1.67;100.00;146480.44;5094915;28;20192;-63
2024/01/15 00:48:35;;;;;;;34.63;18.17;;;;;;;1.66;100.00;146479.19;5095048;28;20204;-62
2024/01/15 00:51:02;;;;;;;25.37;16.70;;;;;;;1.70;100.00;146487.97;5094866;28;20195;-64
2024/01/15 00:53:29;;;;;;;32.53;18.63;;;;;;;1.68;100.00;146484.22;5094787;28;20194;-63
2024/01/15 00:55:58;;;;;;;27.47;17.47;;;;;;;1.61;100.00;146466.63;5094632;28;20288;-62
2024/01/15 00:58:25;;;;;;;24.03;17.13;;;;;;;1.67;100.00;146481.72;5095043;28;20273;-64
2024/01/15 01:00:52;;;;;;;24.10;16.13;;;;;;;1.58;100.00;146457.88;5094838;28;20191;-63
2024/01/15 01:03:19;;;;;;;16.17;12.63;;;;;;;1.56;100.00;146454.13;5095076;28;20191;-63
2024/01/15 01:05:46;;;;;;;13.80;11.73;;;;;;;1.25;100.00;146376.34;5094648;28;20271;-63
2024/01/15 01:08:13;;;;;;;14.73;11.90;;;;;;;1.39;100.00;146411.47;5094720;28;20234;-64
2024/01/15 01:10:42;;;;;;;18.97;10.63;;;;;;;1.38;100.00;146410.22;5094863;28;20639;-63
2024/01/15 01:13:11;;;;;;;11.10;10.13;;;;;;;1.18;100.00;146360.06;5094473;28;20185;-63
2024/01/15 01:15:38;;;;;;;11.57;10.47;;;;;;;1.19;100.00;146362.53;5093932;28;20188;-63
2024/01/15 01:18:06;;;;;;;11.30;10.30;;;;;;;1.26;100.00;146380.13;5094644;28;20615;-63
2024/01/15 01:20:33;;;;;;;10.00;9.07;;;;;;;1.20;100.00;146363.81;5094669;28;20646;-62
2024/01/15 01:23:00;;;;;;;9.27;8.57;;;;;;;1.27;100.00;146381.38;5094578;28;20184;-63
2024/01/15 01:25:27;;;;;;;12.80;10.03;;;;;;;1.22;100.00;146370.09;5094271;28;20188;-63
2024/01/15 01:27:54;;;;;;;10.67;9.37;;;;;;;1.22;100.00;146368.84;5094429;28;20204;-64
2024/01/15 01:30:22;;;;;;;9.30;8.37;;;;;;;1.25;100.00;146377.59;5094057;28;20188;-64
2024/01/15 01:32:49;;;;;;;9.17;8.60;;;;;;;1.23;100.00;146372.56;5094282;28;20253;-63
2024/01/15 01:35:16;;;;;;;9.67;9.03;;;;;;;1.17;100.00;146357.53;5094144;28;20700;-64
2024/01/15 01:37:43;;;;;;;9.20;7.23;;;;;;;1.23;100.00;146372.56;5094335;28;20626;-63
2024/01/15 01:40:11;;;;;;;7.77;7.20;;;;;;;1.15;100.00;146351.25;5093903;28;20195;-62
2024/01/15 01:42:38;;;;;;;9.83;9.23;;;;;;;1.18;100.00;146360.06;5093928;28;20188;-63
2024/01/15 01:45:06;;;;;;;7.77;7.17;;;;;;;1.21;100.00;146367.56;5093792;28;20238;-63
2024/01/15 01:47:35;;;;;;;8.47;7.77;;;;;;;1.33;100.00;146396.41;5094034;28;20666;-63
2024/01/15 01:50:03;;;;;;;8.87;7.97;;;;;;;1.20;100.00;146363.81;5093794;28;20290;-63
2024/01/15 01:52:31;;;;;;;10.67;9.60;;;;;;;1.20;100.00;146365.06;5093732;28;20192;-63
2024/01/15 01:55:01;;;;;;;17.87;12.93;;;;;;;1.21;100.00;146366.31;5093534;28;20267;-63
2024/01/15 01:57:28;;;;;;;25.27;17.47;;;;;;;1.17;100.00;146356.28;5093749;28;20630;-63
2024/01/15 01:59:56;;;;;;;31.17;18.13;;;;;;;1.11;100.00;146341.22;5093972;28;20216;-64
2024/01/15 02:02:24;;;;;;;30.03;19.07;;;;;;;1.26;100.00;146380.13;5093889;28;20188;-63
2024/01/15 02:04:52;;;;;;;25.40;17.97;;;;;;;1.09;100.00;146336.22;5093825;28;20691;-62
2024/01/15 02:07:19;;;;;;;27.47;20.27;;;;;;;1.09;100.00;146337.50;5093285;28;20250;-64
2024/01/15 02:09:46;;;;;;;32.20;20.63;;;;;;;0.96;100.00;146303.63;5093656;28;20184;-64
2024/01/15 02:12:13;;;;;;;35.73;22.70;;;;;;;0.97;100.00;146306.13;5093326;28;20241;-63
2024/01/15 02:14:40;;;;;;;33.57;22.13;;;;;;;1.05;100.00;146326.19;5093355;28;20619;-64
2024/01/15 02:17:08;;;;;;;35.17;21.83;;;;;;;1.15;100.00;146352.50;5093254;28;20188;-63
2024/01/15 02:19:35;;;;;;;29.53;19.60;;;;;;;1.20;100.00;146363.81;5093470;28;20194;-63
2024/01/15 02:22:03;;;;;;;28.50;20.50;;;;;;;1.29;100.00;146387.63;5093116;28;20586;-63
2024/01/15 02:24:32;;;;;;;33.37;22.13;;;;;;;1.31;100.00;146391.41;5093083;28;20219;-63
2024/01/15 02:26:59;;;;;;;30.10;20.90;;;;;;;1.41;100.00;146415.22;5092765;28;20200;-63
2024/01/15 02:29:26;;;;;;;36.67;20.03;;;;;;;1.45;100.00;146426.50;5092891;28;20208;-62
2024/01/15 02:31:54;;;;;;;22.10;16.73;;;;;;;1.46;100.00;146429.03;5093242;28;20180;-62
2024/01/15 02:34:21;;;;;;;20.97;16.60;;;;;;;1.17;100.00;146356.28;5093238;28;20188;-63
2024/01/15 02:36:48;;;;;;;22.13;15.77;;;;;;;1.36;100.00;146403.91;5093331;28;20188;-63
2024/01/15 02:39:15;;;;;;;24.17;16.43;;;;;;;1.44;100.00;146422.78;5093136;28;20252;-63
2024/01/15 02:41:44;;;;;;;21.23;15.63;;;;;;;1.45;100.00;146426.50;5093099;28;20612;-63
2024/01/15 02:44:11;;;;;;;19.80;14.93;;;;;;;1.15;100.00;146352.50;5092788;28;20188;-63
2024/01/15 02:46:38;;;;;;;18.80;15.57;;;;;;;1.02;100.00;146318.69;5093052;28;20184;-62
2024/01/15 02:49:05;;;;;;;27.87;19.70;;;;;;;0.84;100.00;146276.06;5092584;28;20226;-63
2024/01/15 02:51:32;;;;;;;13.33;11.93;;;;;;;0.83;100.00;146272.28;5092619;28;20283;-61
2024/01/15 02:53:59;;;;;;;15.37;12.30;;;;;;;0.90;100.00;146289.81;5092177;28;20180;-62
2024/01/15 02:56:26;;;;;;;11.20;10.20;;;;;;;0.78;100.00;146259.75;5092429;28;20184;-63
2024/01/15 02:58:55;;;;;;;23.03;15.63;;;;;;;0.95;100.00;146302.38;5092690;28;20642;-62
2024/01/15 03:01:22;;;;;;;31.67;21.50;;;;;;;0.95;100.00;146301.09;5092392;28;20196;-63
2024/01/15 03:03:49;;;;;;;41.13;23.13;;;;;;;0.90;100.00;146289.81;5092335;28;20184;-62
2024/01/15 03:06:16;;;;;;;32.07;20.50;;;;;;;0.55;100.00;146202.09;5092488;28;20667;-63
2024/01/15 03:08:43;;;;;;;28.70;21.03;;;;;;;0.59;100.00;146213.38;5092357;28;20226;-63
2024/01/15 03:11:10;;;;;;;37.33;21.60;;;;;;;0.44;100.00;146175.75;5092177;28;20188;-62
2024/01/15 03:13:38;;;;;;;38.70;21.60;;;;;;;0.41;100.00;146168.25;5092319;28;20204;-62
2024/01/15 03:16:07;;;;;;;31.50;21.27;;;;;;;0.39;100.00;146164.47;5092297;28;20716;-63
2024/01/15 03:18:34;;;;;;;42.63;22.37;;;;;;;0.38;100.00;146161.97;5091991;28;20190;-62
2024/01/15 03:21:02;;;;;;;27.33;19.80;;;;;;;0.43;100.00;146174.50;5092053;28;20267;-62
2024/01/15 03:23:29;;;;;;;36.57;20.53;;;;;;;0.49;100.00;146187.06;5091962;28;20194;-63
2024/01/15 03:25:56;;;;;;;34.93;22.57;;;;;;;0.50;100.00;146189.56;5092381;28;20195;-62
2024/01/15 03:28:23;;;;;;;40.17;22.43;;;;;;;0.41;100.00;146169.53;5092347;28;20571;-63
2024/01/15 03:30:50;;;;;;;34.40;21.17;;;;;;;0.57;100.00;146207.09;5092208;28;20187;-63
2024/01/15 03:33:19;;;;;;;29.67;19.30;;;;;;;0.65;100.00;146227.13;5091855;28;20184;-63
2024/01/15 03:35:46;;;;;;;34.53;21.07;;;;;;;0.64;100.00;146224.63;5092188;28;20232;-63
2024/01/15 03:38:13;;;;;;;31.73;19.10;;;;;;;0.29;100.00;146139.44;5091700;28;20227;-62
2024/01/15 03:40:40;;;;;;;37.20;17.10;;;;;;;0.45;100.00;146179.53;5092158;28;20192;-62
2024/01/15 03:43:07;;;;;;;23.17;17.90;;;;;;;0.34;100.00;146150.72;5092093;28;20184;-64
2024/01/15 03:45:34;;;;;;;20.47;16.40;;;;;;;0.39;100.00;146163.22;5091737;28;20241;-62
2024/01/15 03:48:01;;;;;;;26.93;17.13;;;;;;;0.30;100.00;146141.91;5091851;28;20200;-63
2024/01/15 03:50:29;;;;;;;21.67;15.83;;;;;;;0.25;100.00;146129.44;5091739;28;20188;-61
2024/01/15 03:52:56;;;;;;;20.40;14.73;;;;;;;-0.07;100.00;146050.47;5091984;28;20535;-61
2024/01/15 03:55:24;;;;;;;24.83;15.43;;;;;;;-0.11;100.00;146040.47;5091654;28;20228;-62
2024/01/15 03:57:51;;;;;;;19.63;15.27;;;;;;;-0.46;100.00;145954.03;5091682;28;20203;-63
2024/01/15 04:00:18;;;;;;;17.83;13.83;;;;;;;-0.35;100.00;145980.38;5091800;28;20233;-63
2024/01/15 04:02:45;;;;;;;19.27;14.03;;;;;;;-0.46;100.00;145954.03;5091689;28;20235;-62
2024/01/15 04:05:12;;;;;;;19.40;13.70;;;;;;;-0.34;100.00;145981.63;5091872;28;20184;-63
2024/01/15 04:07:41;;;;;;;21.60;14.03;;;;;;;-0.28;100.00;145996.63;5092015;28;20539;-63
2024/01/15 04:10:09;;;;;;;18.47;11.00;;;;;;;-0.29;100.00;145994.09;5091471;28;20208;-62
2024/01/15 04:12:36;;;;;;;16.10;11.50;;;;;;;-0.24;100.00;146006.63;5091495;28;20184;-62
2024/01/15 04:15:03;;;;;;;14.40;11.37;;;;;;;-0.23;100.00;146010.41;5091777;28;20332;-63
2024/01/15 04:17:30;;;;;;;15.47;11.13;;;;;;;-0.28;100.00;145997.88;5091476;28;20188;-63
2024/01/15 04:19:57;;;;;;;18.10;10.90;;;;;;;-0.25;100.00;146005.38;5091867;28;20249;-62
2024/01/15 04:22:24;;;;;;;12.47;11.27;;;;;;;-0.21;100.00;146014.19;5091742;28;20180;-62
2024/01/15 04:24:52;;;;;;;13.47;10.80;;;;;;;-0.17;100.00;146024.19;5091548;28;20192;-63
2024/01/15 04:27:19;;;;;;;14.07;11.63;;;;;;;-0.05;100.00;146054.25;5091861;28;20204;-61
2024/01/15 04:29:46;;;;;;;16.03;10.80;;;;;;;-0.14;100.00;146031.72;5091715;28;20207;-63
2024/01/15 04:32:14;;;;;;;19.10;11.40;;;;;;;-0.39;100.00;145970.34;5091237;28;20192;-63
2024/01/15 04:34:41;;;;;;;27.63;11.67;;;;;;;-0.34;100.00;145982.81;5091678;28;20196;-62
2024/01/15 04:37:08;;;;;;;33.33;10.60;;;;;;;-0.25;100.00;146004.13;5091712;28;20238;-63
2024/01/15 04:39:35;;;;;;;20.10;10.70;;;;;;;-0.48;100.00;145947.78;5091237;28;20188;-63
2024/01/15 04:42:04;;;;;;;10.67;9.83;;;;;;;-0.33;100.00;145984.09;5091547;28;20654;-63
2024/01/15 04:44:31;;;;;;;11.57;10.57;;;;;;;-0.35;100.00;145979.09;5091238;28;20188;-62
2024/01/15 04:46:58;;;;;;;15.70;11.07;;;;;;;-0.37;100.00;145974.06;5091533;28;20651;-62
2024/01/15 04:49:26;;;;;;;15.23;12.97;;;;;;;-0.35;100.00;145979.09;5091567;28;20240;-62
2024/01/15 04:51:53;;;;;;;27.50;14.43;;;;;;;-0.24;100.00;146006.63;5094894;28;20188;-63
2024/01/15 04:54:20;;;;;;;18.33;13.63;;;;;;;-0.41;100.00;145965.31;5094864;28;20606;-62
2024/01/15 04:56:47;;;;;;;20.10;13.20;;;;;;;-0.21;100.00;146015.41;5095057;28;20600;-62
2024/01/15 04:59:16;;;;;;;17.13;13.20;;;;;;;-0.18;100.00;146022.94;5094981;28;20630;-62
2024/01/15 05:01:43;;;;;;;35.03;14.93;;;;;;;-0.18;100.00;146022.94;5094944;28;20262;-62
2024/01/15 05:04:10;;;;;;;25.00;15.17;;;;;;;-0.65;100.00;145906.47;5094993;28;20245;-62
2024/01/15 05:06:37;;;;;;;18.27;14.50;;;;;;;-0.31;100.00;145990.38;5094912;28;20202;-62
2024/01/15 05:09:04;;;;;;;35.63;15.97;;;;;;;-0.28;100.00;145996.63;5094780;28;20204;-62
2024/01/15 05:11:31;;;;;;;31.97;15.60;;;;;;;-0.23;100.00;146009.16;5094538;28;20190;-64
2024/01/15 05:13:58;;;;;;;25.77;16.33;;;;;;;-0.12;100.00;146037.94;5094450;28;20184;-62
2024/01/15 05:16:27;;;;;;;28.97;15.03;;;;;;;-0.04;100.00;146057.97;5094657;28;20192;-63
2024/01/15 05:18:54;;;;;;;18.40;14.70;;;;;;;0.07;100.00;146084.31;5094345;28;20301;-64
2024/01/15 05:21:21;;;;;;;49.90;17.47;;;;;;;0.10;100.00;146091.81;5094264;28;20188;-63
2024/01/15 05:23:48;;;;;;;22.00;15.97;;;;;;;0.10;100.00;146090.56;5094140;28;20188;-62
2024/01/15 05:26:15;;;;;;;26.70;16.33;;;;;;;0.17;100.00;146109.34;5094273;28;20294;-61
2024/01/15 05:28:43;;;;;;;19.43;15.10;;;;;;;0.08;100.00;146085.56;5094063;28;20208;-62
2024/01/15 05:31:10;;;;;;;37.43;17.23;;;;;;;0.27;100.00;146134.41;5093951;28;20190;-62
2024/01/15 05:33:40;;;;;;;26.30;15.47;;;;;;;0.35;100.00;146154.47;5094078;28;20184;-63
2024/01/15 05:36:07;;;;;;;24.47;17.13;;;;;;;0.39;100.00;146164.47;5094287;28;20558;-63
2024/01/15 05:38:34;;;;;;;29.87;17.53;;;;;;;0.41;100.00;146169.53;5094124;28;20184;-62
2024/01/15 05:41:01;;;;;;;33.07;19.70;;;;;;;0.45;100.00;146179.53;5094122;28;20684;-62
2024/01/15 05:43:27;;;;;;;28.43;16.80;;;;;;;0.48;100.00;146185.78;5093785;28;20188;-62
2024/01/15 05:45:54;;;;;;;29.73;18.53;;;;;;;0.50;100.00;146189.56;5094120;28;20195;-63
2024/01/15 05:48:22;;;;;;;41.07;19.20;;;;;;;0.55;100.00;146203.38;5093925;28;20238;-63
2024/01/15 05:50:50;;;;;;;37.60;17.57;;;;;;;0.63;100.00;146222.16;5093580;28;20208;-63
2024/01/15 05:53:17;;;;;;;56.70;24.03;;;;;;;0.68;100.00;146235.91;5093514;28;20192;-63
2024/01/15 05:55:44;;;;;;;65.70;28.93;;;;;;;0.73;100.00;146247.19;5093334;28;20300;-64
2024/01/15 05:58:11;;;;;;;58.50;27.57;;;;;;;0.69;100.00;146237.16;5093680;28;20212;-61
2024/01/15 06:00:38;;;;;;;63.80;25.90;;;;;;;0.41;100.00;146169.53;5092929;28;20180;-62
2024/01/15 06:03:06;;;;;;;56.50;27.20;;;;;;;-0.02;100.00;146061.75;5093142;28;20579;-61
2024/01/15 06:05:33;;;;;;;71.03;28.47;;;;;;;0.32;100.00;146146.97;5093700;28;20229;-63
2024/01/15 06:08:01;;;;;;;66.53;30.23;;;;;;;0.47;100.00;146184.53;5093717;28;20188;-62
2024/01/15 06:10:28;;;;;;;49.67;25.77;;;;;;;0.67;100.00;146232.19;5093670;28;20211;-64
2024/01/15 06:12:55;;;;;;;50.57;26.23;;;;;;;1.08;100.00;146334.97;5093501;28;20188;-65
2024/01/15 06:15:23;;;;;;;63.37;28.07;;;;;;;1.37;100.00;146407.69;5093211;28;20221;-63
2024/01/15 06:17:50;;;;;;;69.67;31.63;;;;;;;1.66;100.00;146477.94;5093539;28;20242;-64
2024/01/15 06:20:17;;;;;;;73.10;34.30;;;;;;;1.84;100.00;146523.09;5093359;28;20630;-64
2024/01/15 06:22:44;;;;;;;68.97;34.50;;;;;;;2.15;100.00;146600.94;5093710;28;20540;-63
2024/01/15 06:25:13;;;;;;;71.07;31.30;;;;;;;2.18;100.00;146608.44;5093477;28;20188;-64
2024/01/15 06:27:40;;;;;;;73.33;32.63;;;;;;;2.70;100.00;146736.50;5093495;28;20184;-62
2024/01/15 06:30:08;;;;;;;67.13;31.57;;;;;;;3.14;100.00;146847.00;5093677;28;20204;-63
2024/01/15 06:32:35;;;;;;;65.40;30.03;;;;;;;3.56;100.00;146950.06;5094620;28;20279;-63
2024/01/15 06:35:02;;;;;;;60.60;29.17;;;;;;;3.74;100.00;146995.28;5095068;28;20238;-62
2024/01/15 06:37:29;;;;;;;97.40;42.80;;;;;;;3.95;100.00;147046.81;5093420;28;20188;-62
2024/01/15 06:39:56;;;;;;;48.90;27.23;;;;;;;3.72;100.00;146990.28;5093338;28;20187;-61
2024/01/15 06:42:26;;;;;;;61.50;27.60;;;;;;;3.97;100.00;147053.13;5092884;28;20607;-61
2024/01/15 06:44:53;;;;;;;72.80;30.37;;;;;;;4.15;100.00;147097.13;5092842;28;20221;-61
2024/01/15 06:47:20;;;;;;;55.97;28.07;;;;;;;4.90;100.00;147284.50;5092635;28;20195;-61
2024/01/15 06:49:47;;;;;;;62.47;28.63;;;;;;;5.57;100.00;147450.59;5092566;28;20264;-63
2024/01/15 06:52:14;;;;;;;85.93;29.73;;;;;;;6.02;94.33;147562.75;5092542;28;20242;-62
2024/01/15 06:54:41;;;;;;;75.57;29.77;;;;;;;6.53;91.61;147688.69;5092470;28;20285;-62
2024/01/15 06:57:08;;;;;;;67.90;28.63;;;;;;;7.21;87.26;147860.03;5092407;28;20195;-61
2024/01/15 06:59:37;;;;;;;58.20;33.53;;;;;;;8.01;81.34;148059.31;5093081;28;20656;-61
2024/01/15 07:02:04;;;;;;;58.30;28.27;;;;;;;8.52;75.75;148185.53;5092425;28;20192;-62
2024/01/15 07:04:31;;;;;;;65.23;31.43;;;;;;;8.98;72.30;148300.38;5093094;28;20188;-61
2024/01/15 07:06:58;;;;;;;73.60;35.87;;;;;;;9.48;69.78;148426.63;5092230;28;20739;-62
2024/01/15 07:09:25;;;;;;;84.27;36.90;;;;;;;9.29;67.35;148377.41;5092171;28;20208;-61
2024/01/15 07:11:52;;;;;;;62.93;28.93;;;;;;;9.27;67.94;148372.31;5092188;28;20643;-62
2024/01/15 07:14:19;;;;;;;55.87;27.40;;;;;;;9.71;67.49;148483.50;5091852;28;20191;-61
2024/01/15 07:16:47;;;;;;;42.13;23.10;;;;;;;9.63;67.22;148463.28;5091732;28;20188;-62
2024/01/15 07:19:15;;;;;;;61.87;28.40;;;;;;;10.17;66.91;148598.50;5092644;28;20184;-61
2024/01/15 07:21:42;;;;;;;56.13;26.70;;;;;;;10.93;65.97;148789.38;5092276;28;20188;-64
2024/01/15 07:24:10;;;;;;;64.57;28.60;;;;;;;11.70;63.30;148980.34;5092603;28;20207;-63
2024/01/15 07:26:37;;;;;;;43.47;23.33;;;;;;;11.86;61.13;149022.16;5092272;28;20239;-61
2024/01/15 07:29:04;;;;;;;44.27;21.60;;;;;;;11.63;61.18;148963.88;5091659;28;20188;-61
2024/01/15 07:31:32;;;;;;;34.07;21.40;;;;;;;12.04;60.85;149066.44;5092069;28;20502;-61
2024/01/15 07:34:01;;;;;;;60.50;23.03;;;;;;;12.63;57.92;149213.25;5091772;28;20288;-61
2024/01/15 07:36:28;;;;;;;58.17;23.57;;;;;;;13.18;56.64;149352.63;5091601;28;20188;-61
2024/01/15 07:38:55;;;;;;;65.60;26.07;;;;;;;13.48;55.02;149427.38;5091748;28;20245;-61
2024/01/15 07:41:23;;;;;;;67.07;30.50;;;;;;;13.33;55.17;149389.34;5092717;28;20230;-64
2024/01/15 07:43:50;;;;;;;60.70;31.67;;;;;;;12.57;55.74;149198.06;5092091;28;20265;-64
2024/01/15 07:46:17;;;;;;;86.63;35.77;;;;;;;12.30;57.15;149131.00;5093601;28;20193;-64
2024/01/15 07:48:44;;;;;;;82.80;38.03;;;;;;;11.34;58.71;148890.50;5093222;28;20257;-64
2024/01/15 07:51:12;;;;;;;88.03;40.47;;;;;;;11.38;59.18;148900.63;5092734;28;20738;-63
2024/01/15 07:53:40;;;;;;;100.70;41.13;;;;;;;11.62;58.76;148960.09;5093114;28;20184;-64
2024/01/15 07:56:07;;;;;;;82.67;39.07;;;;;;;11.83;57.61;149013.28;5091634;28;20778;-63
2024/01/15 07:58:34;;;;;;;98.83;39.30;;;;;;;12.08;57.21;149076.56;5092569;28;20245;-64
2024/01/15 08:01:01;;;;;;;85.23;38.87;;;;;;;11.45;57.37;148919.63;5092441;28;20635;-64
2024/01/15 08:03:28;;;;;;;105.60;39.60;;;;;;;11.11;59.49;148833.63;5092983;28;20188;-62
2024/01/15 08:05:57;;;;;;;97.37;41.23;;;;;;;11.03;60.00;148813.41;5092378;28;20642;-63
2024/01/15 08:08:25;;;;;;;83.27;39.20;;;;;;;11.36;59.46;148896.84;5091593;28;20267;-62
2024/01/15 08:10:53;;;;;;;73.60;36.67;;;;;;;11.18;61.89;148851.31;5091736;28;20665;-62
2024/01/15 08:13:21;;;;;;;62.57;36.67;;;;;;;11.34;61.95;148891.78;5091606;28;20192;-62
2024/01/15 08:15:48;;;;;;;82.73;36.13;;;;;;;11.28;64.38;148876.63;5091857;28;20184;-63
2024/01/15 08:18:15;;;;;;;58.60;33.40;;;;;;;11.76;63.48;148995.56;5090919;28;20249;-63
2024/01/15 08:20:42;;;;;;;45.80;29.63;;;;;;;12.05;63.18;149068.94;5091422;28;20226;-64
2024/01/15 08:23:09;;;;;;;90.63;34.93;;;;;;;12.66;61.72;149220.84;5091655;28;20538;-62
2024/01/15 08:25:38;;;;;;;69.93;32.07;;;;;;;13.77;58.64;149499.56;5094058;28;20551;-63
2024/01/15 08:28:05;;;;;;;55.00;30.17;;;;;;;14.85;55.17;149770.91;5095405;28;20225;-62
2024/01/15 08:30:32;;;;;;;62.93;27.23;;;;;;;15.73;51.65;149990.47;5096550;28;20260;-64
2024/01/15 08:33:00;;;;;;;49.73;27.77;;;;;;;16.84;49.45;150269.84;5096836;28;20244;-63
2024/01/15 08:35:27;;;;;;;60.33;23.47;;;;;;;18.00;45.81;150562.13;5095138;28;20188;-64
2024/01/15 08:37:54;;;;;;;50.53;24.50;;;;;;;18.64;42.21;150722.38;5095599;28;20214;-64
2024/01/15 08:40:21;;;;;;;54.90;26.37;;;;;;;19.91;41.63;151041.81;5095639;28;20184;-63
2024/01/15 08:42:50;;;;;;;58.83;21.87;;;;;;;18.89;40.78;150784.72;5095824;28;20630;-63
2024/01/15 08:45:17;;;;;;;56.60;21.33;;;;;;;18.55;41.72;150700.75;5095297;28;20187;-63
2024/01/15 08:47:44;;;;;;;151.23;84.60;;;;;;;18.01;42.06;150564.69;5095034;28;20250;-62
2024/01/15 08:50:11;;;;;;;96.83;47.93;;;;;;;17.39;43.51;150408.31;5094339;28;20200;-62
2024/01/15 08:52:38;;;;;;;99.43;48.50;;;;;;;17.25;44.00;150372.72;5094692;28;20188;-62
2024/01/15 08:55:07;;;;;;;93.53;41.47;;;;;;;17.86;43.67;150525.28;5094512;28;20292;-63
2024/01/15 08:57:34;;;;;;;47.87;31.97;;;;;;;17.82;43.17;150516.41;5094930;28;20184;-63
2024/01/15 09:00:03;;;;;;;84.53;31.80;;;;;;;18.48;42.51;150681.66;5094809;28;20206;-64
2024/01/15 09:02:30;;;;;;;45.57;26.57;;;;;;;18.61;41.77;150714.78;5094638;28;20280;-63
2024/01/15 09:05:06;;;;;;;58.57;27.53;;;;;;;18.57;40.66;150705.88;5095060;28;20184;-64
2024/01/15 09:07:33;;;;;;;56.70;27.60;;;;;;;18.23;40.95;150619.34;5093383;28;20206;-64
2024/01/15 09:10:01;;;;;;;50.07;24.47;;;;;;;18.51;40.81;150690.53;5094904;28;20261;-64
2024/01/15 09:12:29;;;;;;;42.67;25.50;;;;;;;18.41;39.94;150663.88;5094793;28;20180;-63
2024/01/15 09:14:56;;;;;;;63.22;25.92;;;;;;;19.12;39.38;150844.53;5095007;28;20594;-63
2024/01/15 09:17:24;;;;;;;48.10;24.15;;;;;;;20.76;38.00;151255.78;5094558;28;20655;-65
2024/01/15 09:19:52;;;;;;;44.35;20.27;;;;;;;22.56;35.28;151709.66;5096377;28;20188;-60
2024/01/15 09:22:19;;;;;;;23.17;15.70;;;;;;;24.12;32.04;152105.31;5094317;28;20188;-61
2024/01/15 09:24:46;;;;;;;19.05;16.17;;;;;;;25.30;30.70;152402.97;5093907;28;20276;-62
2024/01/15 09:27:13;;;;;;;18.95;14.63;;;;;;;26.04;29.16;152589.63;5094111;28;20203;-60
2024/01/15 09:29:41;;;;;;;19.55;13.63;;;;;;;26.29;27.64;152652.31;5093551;28;20191;-63
2024/01/15 09:32:09;;;;;;;17.17;14.23;;;;;;;26.57;27.92;152723.91;5093696;28;20184;-62
2024/01/15 09:34:37;;;;;;;56.08;19.38;;;;;;;26.85;27.12;152793.03;5093917;28;20278;-62
2024/01/15 09:37:05;;;;;;;33.33;15.23;;;;;;;26.05;27.28;152592.19;5093788;28;20196;-62
2024/01/15 09:39:32;;;;;;;19.60;14.20;;;;;;;26.12;27.30;152608.78;5093904;28;20196;-61
2024/01/15 09:41:59;;;;;;;25.95;15.45;;;;;;;25.23;27.53;152385.09;5094004;28;20226;-61
2024/01/15 09:44:28;;;;;;;28.77;15.40;;;;;;;24.91;28.37;152304.59;5093374;28;20196;-61
2024/01/15 09:46:57;;;;;;;19.30;12.55;;;;;;;25.40;27.71;152427.25;5093697;28;20183;-62
2024/01/15 09:49:24;;;;;;;11.70;10.75;;;;;;;24.59;27.44;152222.81;5093364;28;20539;-61
2024/01/15 09:51:52;;;;;;;13.27;11.38;;;;;;;25.09;27.11;152349.31;5093234;28;20574;-62
2024/01/15 09:54:21;;;;;;;31.63;12.95;;;;;;;24.76;27.57;152266.25;5093106;28;20223;-64
2024/01/15 09:56:48;;;;;;;10.73;10.05;;;;;;;23.44;28.30;151933.00;5093670;28;20188;-61
2024/01/15 09:59:17;;;;;;;17.75;11.18;;;;;;;23.36;28.76;151911.25;5093312;28;20195;-62
2024/01/15 10:01:45;;;;;;;31.70;13.38;;;;;;;22.84;29.73;151779.81;5093690;28;20188;-61
2024/01/15 10:04:12;;;;;;;13.75;11.45;;;;;;;22.83;29.44;151778.53;5093689;28;20634;-62
2024/01/15 10:06:45;;;;;;;13.05;12.05;;;;;;;22.75;30.02;151758.13;5093293;28;20559;-61
2024/01/15 10:09:15;;;;;;;14.02;11.80;;;;;;;22.52;30.22;151699.44;5093236;28;20188;-63
2024/01/15 10:11:42;;;;;;;17.38;10.88;;;;;;;22.36;30.50;151658.66;5092891;28;20214;-63
2024/01/15 10:14:12;;;;;;;12.32;11.15;;;;;;;22.86;30.57;151784.94;5093513;28;20233;-62
2024/01/15 10:16:39;;;;;;;10.98;10.07;;;;;;;21.64;31.68;151477.56;5092934;28;20195;-60
2024/01/15 10:19:06;;;;;;;12.25;10.95;;;;;;;21.39;31.44;151415.09;5092956;28;20188;-63
2024/01/15 10:21:35;;;;;;;94.18;58.03;;;;;;;21.43;31.63;151426.56;5092631;28;20184;-60
2024/01/15 10:24:02;;;;;;;266.90;191.32;;;;;;;20.79;32.45;151264.69;5093200;28;20287;-60
2024/01/15 10:26:31;;;;;;;16.10;13.00;;;;;;;20.55;33.07;151202.28;5093328;28;20630;-61
2024/01/15 10:29:00;;;;;;;13.48;11.20;;;;;;;19.63;34.32;150971.81;5092803;28;20181;-62
2024/01/15 10:31:27;;;;;;;15.98;14.52;;;;;;;20.18;33.67;151110.59;5092639;28;20712;-62
2024/01/15 10:33:54;;;;;;;19.08;13.95;;;;;;;20.86;33.06;151281.28;5092586;28;20184;-61
2024/01/15 10:36:22;;;;;;;10.60;9.90;;;;;;;20.12;33.83;151095.28;5092686;28;20271;-61
2024/01/15 10:38:49;;;;;;;11.75;10.40;;;;;;;19.24;35.05;150873.78;5092764;28;20206;-60
2024/01/15 10:41:17;;;;;;;11.43;10.53;;;;;;;17.90;36.41;150535.47;5092357;28;20253;-60
2024/01/15 10:43:45;;;;;;;13.43;12.03;;;;;;;17.07;37.98;150326.97;5092707;28;20576;-60
2024/01/15 10:46:13;;;;;;;20.07;11.70;;;;;;;16.92;38.73;150288.88;5092612;28;20712;-61
2024/01/15 10:48:41;;;;;;;13.13;10.70;;;;;;;16.50;39.54;150184.72;5091714;28;20183;-60
2024/01/15 10:51:13;;;;;;;28.93;11.53;;;;;;;17.02;39.46;150314.25;5092374;28;20234;-62
2024/01/15 10:53:41;;;;;;;12.53;10.23;;;;;;;16.81;39.83;150262.19;5092204;28;20235;-62
2024/01/15 10:56:11;;;;;;;14.77;10.70;;;;;;;16.53;40.08;150192.31;5092073;28;20243;-61
2024/01/15 10:58:40;;;;;;;18.47;11.80;;;;;;;16.70;40.45;150234.25;5094795;28;20269;-63
2024/01/15 11:01:09;;;;;;;14.17;11.07;;;;;;;17.13;39.32;150342.25;5092240;28;20180;-64
2024/01/15 11:03:37;;;;;;;11.37;10.30;;;;;;;16.50;40.62;150183.44;5092338;28;20188;-64
2024/01/15 11:06:04;;;;;;;11.93;10.53;;;;;;;17.25;40.04;150372.72;5092426;28;20626;-65
2024/01/15 11:08:36;;;;;;;11.37;10.47;;;;;;;16.93;40.83;150291.44;5093662;28;20737;-64
2024/01/15 11:11:09;;;;;;;13.40;9.47;;;;;;;17.12;40.67;150340.97;5094330;28;20585;-64